Time;durP1;ratioP1;P1;durP2;ratioP2;P2;SDS_P1;SDS_P2;PMS_P1;PMS_P2;Temp;Humidity;BMP_temperature;BMP_pressure;BME280_temperature;BME280_humidity;BME280_pressure;Samples;Min_cycle;Max_cycle;Signal;HPM_P1;HPM_P2
2022/03/08 00:00:19;;;;;;;52.45;24.73;;;;;;;0.91;66.31;101074.63;5012905;28;20029;-78
2022/03/08 00:02:45;;;;;;;49.05;23.70;;;;;;;0.92;66.52;101084.63;5013113;28;20442;-79
2022/03/08 00:05:10;;;;;;;56.72;24.17;;;;;;;0.89;66.31;101074.22;5014260;28;20147;-78
2022/03/08 00:07:36;;;;;;;67.95;28.83;;;;;;;0.90;66.51;101079.41;4996567;28;20022;-77
2022/03/08 00:10:03;;;;;;;76.70;32.08;;;;;;;0.88;66.59;101075.41;4996230;28;20096;-79
2022/03/08 00:12:29;;;;;;;63.60;29.52;;;;;;;0.87;66.83;101077.41;4996090;28;20475;-78
2022/03/08 00:14:54;;;;;;;69.70;28.83;;;;;;;0.86;66.93;101075.78;4996235;28;20029;-77
2022/03/08 00:17:19;;;;;;;57.22;26.25;;;;;;;0.81;66.90;101073.38;4996494;28;20029;-76
2022/03/08 00:19:45;;;;;;;53.67;25.85;;;;;;;0.79;66.95;101073.75;5012392;28;20056;-77
2022/03/08 00:22:10;;;;;;;55.65;25.83;;;;;;;0.78;66.96;101082.59;5012557;28;20033;-78
2022/03/08 00:24:35;;;;;;;54.95;26.20;;;;;;;0.75;67.34;101081.34;5012236;28;20022;-78
2022/03/08 00:27:01;;;;;;;58.10;27.10;;;;;;;0.69;67.08;101074.50;5013362;28;20033;-78
2022/03/08 00:29:26;;;;;;;51.80;26.58;;;;;;;0.65;68.06;101078.50;5012101;28;20041;-77
2022/03/08 00:31:51;;;;;;;55.67;27.70;;;;;;;0.62;67.48;101084.91;5010058;28;20065;-77
2022/03/08 00:34:17;;;;;;;66.03;28.20;;;;;;;0.61;67.57;101083.28;4993932;28;20140;-77
2022/03/08 00:36:42;;;;;;;60.00;27.48;;;;;;;0.56;68.21;101081.66;4993708;28;20068;-78
2022/03/08 00:39:08;;;;;;;66.22;29.25;;;;;;;0.49;68.38;101078.03;5009687;28;20376;-77
2022/03/08 00:41:33;;;;;;;52.92;26.55;;;;;;;0.45;68.60;101080.78;4993459;28;20164;-77
2022/03/08 00:43:58;;;;;;;54.45;26.33;;;;;;;0.46;68.50;101088.00;5009918;28;20112;-77
2022/03/08 00:46:24;;;;;;;57.50;25.88;;;;;;;0.40;68.46;101076.34;5011707;28;20041;-77
2022/03/08 00:48:50;;;;;;;55.22;24.65;;;;;;;0.37;68.76;101079.16;5012209;28;20467;-78
2022/03/08 00:51:16;;;;;;;54.92;24.70;;;;;;;0.36;69.30;101077.53;4995875;28;20037;-76
2022/03/08 00:53:41;;;;;;;46.67;24.70;;;;;;;0.35;69.29;101073.13;5012178;28;20030;-77
2022/03/08 00:56:07;;;;;;;50.75;24.83;;;;;;;0.36;69.27;101083.13;5012111;28;20117;-77
2022/03/08 00:58:34;;;;;;;57.83;25.95;;;;;;;0.34;69.50;101082.75;5014367;28;20141;-78
2022/03/08 01:00:59;;;;;;;52.00;24.75;;;;;;;0.31;69.58;101075.09;4997026;28;20495;-77
2022/03/08 01:03:24;;;;;;;49.72;24.00;;;;;;;0.29;69.33;101075.50;4996359;28;20034;-78
2022/03/08 01:05:50;;;;;;;57.92;24.08;;;;;;;0.29;69.90;101074.69;4996124;28;20109;-78
2022/03/08 01:08:15;;;;;;;53.85;24.50;;;;;;;0.30;69.39;101079.09;5012078;28;20379;-77
2022/03/08 01:10:41;;;;;;;52.17;24.20;;;;;;;0.31;69.48;101072.28;4995200;28;20030;-78
2022/03/08 01:13:06;;;;;;;56.75;25.92;;;;;;;0.31;69.71;101081.50;5013178;28;20117;-78
2022/03/08 01:15:32;;;;;;;50.92;24.73;;;;;;;0.29;70.07;101083.09;5011746;28;20100;-78
2022/03/08 01:17:58;;;;;;;53.45;24.67;;;;;;;0.28;69.85;101070.28;5011688;28;20540;-79
2022/03/08 01:20:24;;;;;;;52.53;26.48;;;;;;;0.20;70.00;101069.41;5011778;28;20143;-77
2022/03/08 01:22:49;;;;;;;48.08;23.92;;;;;;;0.23;70.33;101076.25;5013187;28;20383;-78
2022/03/08 01:25:16;;;;;;;46.78;25.92;;;;;;;0.16;70.27;101067.78;5013044;28;20026;-78
2022/03/08 01:27:42;;;;;;;55.33;25.35;;;;;;;0.21;70.27;101081.44;5011924;28;20468;-77
2022/03/08 01:30:11;;;;;;;53.58;26.45;;;;;;;0.16;70.49;101074.19;5011743;28;20088;-77
2022/03/08 01:32:36;;;;;;;60.97;27.73;;;;;;;0.16;70.67;101073.38;5011623;28;20033;-77
2022/03/08 01:35:03;;;;;;;48.35;26.00;;;;;;;0.13;71.16;101077.78;5012370;28;20099;-78
2022/03/08 01:37:28;;;;;;;56.85;26.90;;;;;;;0.00;70.66;101059.69;5012613;28;20022;-78
2022/03/08 01:39:53;;;;;;;56.70;25.00;;;;;;;0.06;70.68;101077.72;5012509;28;20099;-78
2022/03/08 01:42:22;;;;;;;53.55;25.55;;;;;;;0.03;71.07;101074.91;4995691;28;20029;-78
2022/03/08 01:44:48;;;;;;;58.30;26.55;;;;;;;0.01;70.94;101072.47;5011443;28;20109;-78
2022/03/08 01:47:18;;;;;;;52.13;25.65;;;;;;;0.00;70.75;101073.69;5011403;28;20453;-77
2022/03/08 01:49:45;;;;;;;54.60;24.48;;;;;;;-0.03;71.41;101088.44;5013312;28;20065;-78
2022/03/08 01:52:11;;;;;;;64.32;24.55;;;;;;;-0.06;71.27;101086.44;4998726;28;20053;-78
2022/03/08 01:54:36;;;;;;;58.35;23.88;;;;;;;-0.06;71.57;101090.06;5015428;28;20033;-77
2022/03/08 01:57:03;;;;;;;54.97;25.42;;;;;;;-0.08;71.68;101092.41;4999495;28;20030;-79
2022/03/08 01:59:28;;;;;;;51.38;23.55;;;;;;;-0.12;71.56;101088.78;4998987;28;20120;-78
2022/03/08 02:01:54;;;;;;;49.08;24.00;;;;;;;-0.12;71.59;101099.19;5015244;28;20113;-77
2022/03/08 02:04:20;;;;;;;49.92;24.42;;;;;;;-0.18;71.90;101097.91;4998755;28;20339;-78
2022/03/08 02:06:46;;;;;;;50.85;24.02;;;;;;;-0.27;71.66;101095.44;5015254;28;20037;-80
2022/03/08 02:09:12;;;;;;;53.60;24.58;;;;;;;-0.28;72.13;101102.22;5015193;28;20056;-79
2022/03/08 02:11:37;;;;;;;45.47;24.35;;;;;;;-0.31;72.26;101108.63;5015162;28;20034;-78
2022/03/08 02:14:02;;;;;;;49.00;23.60;;;;;;;-0.34;71.84;101114.16;5011440;28;20088;-76
2022/03/08 02:16:28;;;;;;;48.35;24.83;;;;;;;-0.42;72.20;101118.88;5012364;28;20481;-77
2022/03/08 02:18:54;;;;;;;44.17;22.83;;;;;;;-0.49;72.34;101119.63;5014572;28;20093;-76
2022/03/08 02:21:19;;;;;;;47.05;23.02;;;;;;;-0.57;72.62;101117.13;5024496;28;20052;-77
2022/03/08 02:23:44;;;;;;;49.55;24.27;;;;;;;-0.67;72.92;101107.44;5024816;28;20022;-77
2022/03/08 02:26:10;;;;;;;56.47;24.83;;;;;;;-0.74;72.98;101103.78;5026910;28;20022;-78
2022/03/08 02:28:35;;;;;;;50.70;24.02;;;;;;;-0.79;73.21;101109.72;5033078;28;20052;-76
2022/03/08 02:31:01;;;;;;;48.70;23.13;;;;;;;-0.83;73.46;101103.25;5024593;28;20490;-78
2022/03/08 02:33:26;;;;;;;52.17;23.23;;;;;;;-0.87;73.88;101098.44;5018072;28;20026;-78
2022/03/08 02:35:52;;;;;;;51.05;23.50;;;;;;;-0.90;73.60;101095.59;5016622;28;20095;-78
2022/03/08 02:38:17;;;;;;;49.47;25.88;;;;;;;-0.96;73.99;101094.31;4998232;28;20065;-78
2022/03/08 02:40:43;;;;;;;46.85;24.27;;;;;;;-1.01;74.22;101089.88;5014455;28;20134;-77
2022/03/08 02:43:10;;;;;;;44.67;22.92;;;;;;;-1.03;74.26;101097.84;4998424;28;20034;-78
2022/03/08 02:45:36;;;;;;;48.55;23.55;;;;;;;-1.06;74.15;101098.59;4997948;28;20052;-77
2022/03/08 02:48:02;;;;;;;47.28;23.48;;;;;;;-1.15;74.46;101091.69;4997939;28;20475;-78
2022/03/08 02:50:27;;;;;;;44.83;22.40;;;;;;;-1.17;75.10;101085.66;5014274;28;20026;-78
2022/03/08 02:52:54;;;;;;;51.90;24.30;;;;;;;-1.23;74.83;101092.81;4997774;28;20030;-78
2022/03/08 02:55:22;;;;;;;46.60;21.98;;;;;;;-1.24;75.25;101092.00;5014546;28;20033;-78
2022/03/08 02:57:48;;;;;;;51.90;24.67;;;;;;;-1.20;75.10;101100.41;5014247;28;20064;-78
2022/03/08 03:00:16;;;;;;;44.25;23.02;;;;;;;-1.17;75.25;101108.03;5015381;28;20479;-78
2022/03/08 03:02:41;;;;;;;47.55;24.73;;;;;;;-1.18;74.89;101110.00;5015512;28;20026;-78
2022/03/08 03:05:07;;;;;;;56.15;26.02;;;;;;;-1.22;74.99;101103.56;5014991;28;20030;-78
2022/03/08 03:07:33;;;;;;;50.20;24.65;;;;;;;-1.20;74.78;101109.59;5013689;28;20068;-78
2022/03/08 03:09:59;;;;;;;65.38;27.33;;;;;;;-1.23;74.72;101113.13;4997740;28;20056;-78
2022/03/08 03:12:24;;;;;;;64.60;31.30;;;;;;;-1.29;74.72;101108.28;5013721;28;20383;-78
2022/03/08 03:14:50;;;;;;;70.95;31.08;;;;;;;-1.34;74.97;101113.03;5013791;28;20017;-77
2022/03/08 03:17:17;;;;;;;65.13;30.17;;;;;;;-1.38;75.15;101117.72;5015016;28;20026;-77
2022/03/08 03:19:43;;;;;;;63.25;31.02;;;;;;;-1.47;75.57;101114.41;5014040;28;20101;-78
2022/03/08 03:22:08;;;;;;;62.22;30.25;;;;;;;-1.45;75.63;101128.00;4997630;28;20022;-78
2022/03/08 03:24:34;;;;;;;59.92;29.70;;;;;;;-1.51;75.60;101123.94;5013765;28;20391;-78
2022/03/08 03:26:59;;;;;;;67.70;32.70;;;;;;;-1.55;75.50;101123.06;5013594;28;20030;-78
2022/03/08 03:29:24;;;;;;;60.00;30.52;;;;;;;-1.57;75.29;101134.63;5014641;28;20379;-76
2022/03/08 03:31:50;;;;;;;60.38;32.55;;;;;;;-1.65;75.90;101120.94;4996925;28;20029;-79
2022/03/08 03:34:15;;;;;;;64.85;32.67;;;;;;;-1.70;75.97;101124.84;5014641;28;20030;-78
2022/03/08 03:36:41;;;;;;;65.88;32.95;;;;;;;-1.74;75.71;101126.78;5013287;28;20025;-77
2022/03/08 03:39:06;;;;;;;74.45;32.92;;;;;;;-1.77;76.00;101130.31;5013081;28;20483;-79
2022/03/08 03:41:32;;;;;;;72.78;33.58;;;;;;;-1.82;76.33;101133.41;4996965;28;20036;-79
2022/03/08 03:43:57;;;;;;;79.18;35.83;;;;;;;-1.84;76.66;101133.81;5013346;28;20033;-79
2022/03/08 03:46:23;;;;;;;71.15;36.90;;;;;;;-1.83;77.00;101140.22;5014382;28;20360;-78
2022/03/08 03:48:48;;;;;;;78.80;36.08;;;;;;;-1.80;77.07;101137.47;5013141;28;20029;-78
2022/03/08 03:51:14;;;;;;;71.72;36.63;;;;;;;-1.79;77.05;101133.50;5014475;28;20037;-77
2022/03/08 03:53:40;;;;;;;75.20;36.85;;;;;;;-1.75;77.25;101128.78;5013267;28;20030;-78
2022/03/08 03:56:07;;;;;;;72.82;35.72;;;;;;;-1.70;77.11;101126.84;5013007;28;20026;-78
2022/03/08 03:58:33;;;;;;;77.55;36.40;;;;;;;-1.70;77.24;101130.44;4996897;28;20034;-78
2022/03/08 04:01:00;;;;;;;68.35;33.10;;;;;;;-1.81;76.76;101110.72;5012802;28;20162;-76
2022/03/08 04:03:25;;;;;;;75.63;34.28;;;;;;;-1.71;77.15;101128.00;4996859;28;20072;-77
2022/03/08 04:05:51;;;;;;;70.05;32.85;;;;;;;-1.70;77.15;101135.22;5014057;28;20030;-78
2022/03/08 04:08:20;;;;;;;75.40;37.92;;;;;;;-1.71;77.12;101134.41;5014328;28;20032;-77
2022/03/08 04:10:50;;;;;;;71.25;33.38;;;;;;;-1.73;77.08;101141.56;5013261;28;20025;-76
2022/03/08 04:13:18;;;;;;;75.70;34.92;;;;;;;-1.75;77.03;101151.09;5012438;28;20029;-77
2022/03/08 04:15:54;;;;;;;70.20;36.03;;;;;;;-1.75;77.31;101144.72;5012623;28;20426;-77
2022/03/08 04:18:20;;;;;;;77.00;35.40;;;;;;;-1.76;77.13;101129.94;5014072;28;20084;-78
2022/03/08 04:20:46;;;;;;;62.38;33.05;;;;;;;-1.76;77.42;101131.94;4996338;28;20549;-77
2022/03/08 04:23:12;;;;;;;78.00;35.28;;;;;;;-1.75;77.26;101133.53;5012794;28;20024;-77
2022/03/08 04:25:38;;;;;;;73.07;34.10;;;;;;;-1.78;77.08;101139.91;5012723;28;20033;-79
2022/03/08 04:28:05;;;;;;;75.55;35.97;;;;;;;-1.83;77.36;101148.59;5013401;28;20092;-77
2022/03/08 04:30:32;;;;;;;69.82;36.45;;;;;;;-1.86;77.58;101147.34;5012329;28;20065;-77
2022/03/08 04:32:58;;;;;;;70.18;33.97;;;;;;;-1.84;77.72;101152.56;4996181;28;20448;-78
2022/03/08 04:35:23;;;;;;;65.90;33.08;;;;;;;-1.87;77.78;101153.28;5012680;28;20036;-78
2022/03/08 04:37:57;;;;;;;73.50;35.58;;;;;;;-1.87;77.82;101150.50;5012620;28;20376;-78
2022/03/08 04:40:22;;;;;;;79.32;35.38;;;;;;;-1.85;77.63;101157.31;5028518;28;20132;-77
2022/03/08 04:42:49;;;;;;;76.18;33.97;;;;;;;-1.91;77.82;101146.84;5042318;28;20064;-78
2022/03/08 04:45:15;;;;;;;62.75;33.78;;;;;;;-1.89;77.84;101150.88;5055433;28;20105;-79
2022/03/08 04:47:41;;;;;;;77.60;36.20;;;;;;;-1.91;78.04;101155.22;5038008;28;20033;-78
2022/03/08 04:50:09;;;;;;;78.25;35.53;;;;;;;-1.87;78.04;101158.84;5044737;28;20079;-78
2022/03/08 04:52:36;;;;;;;75.88;35.78;;;;;;;-1.88;78.08;101157.28;5022213;28;20083;-78
2022/03/08 04:55:03;;;;;;;75.70;35.75;;;;;;;-1.92;78.03;101156.38;5015056;28;20033;-79
2022/03/08 04:57:28;;;;;;;73.55;34.13;;;;;;;-1.89;77.72;101170.41;5014840;28;20033;-78
2022/03/08 04:59:53;;;;;;;72.68;35.80;;;;;;;-1.92;78.25;101164.75;5014520;28;20076;-77
2022/03/08 05:02:20;;;;;;;66.47;34.97;;;;;;;-1.92;78.26;101167.53;5014641;28;20462;-78
2022/03/08 05:04:45;;;;;;;72.97;34.40;;;;;;;-1.91;77.99;101169.16;5032679;28;20025;-77
2022/03/08 05:07:12;;;;;;;76.32;36.60;;;;;;;-1.86;78.25;101175.25;5014512;28;20493;-78
2022/03/08 05:09:39;;;;;;;79.20;39.97;;;;;;;-1.81;78.04;101174.13;4998504;28;20120;-79
2022/03/08 05:12:10;;;;;;;88.72;39.72;;;;;;;-1.70;78.55;101168.72;5014559;28;20410;-78
2022/03/08 05:14:37;;;;;;;78.80;38.55;;;;;;;-1.58;78.13;101166.50;4998242;28;20049;-79
2022/03/08 05:17:03;;;;;;;74.50;35.75;;;;;;;-1.47;78.18;101169.47;4998094;28;20018;-79
2022/03/08 05:19:31;;;;;;;81.70;39.05;;;;;;;-1.28;78.18;101179.75;5032737;28;20055;-78
2022/03/08 05:21:57;;;;;;;80.70;38.58;;;;;;;-1.16;77.88;101182.31;5033901;28;20029;-78
2022/03/08 05:24:24;;;;;;;81.28;37.30;;;;;;;-0.98;78.06;101191.72;5016874;28;20032;-78
2022/03/08 05:26:51;;;;;;;72.80;34.28;;;;;;;-0.83;77.44;101185.13;5036239;28;20485;-78
2022/03/08 05:29:17;;;;;;;78.65;35.50;;;;;;;-0.68;77.44;101186.94;5002091;28;20035;-78
2022/03/08 05:31:48;;;;;;;76.10;34.33;;;;;;;-0.55;76.79;101187.50;5035266;28;20044;-78
2022/03/08 05:34:15;;;;;;;74.15;33.53;;;;;;;-0.37;76.84;101188.50;5033032;28;20022;-79
2022/03/08 05:36:41;;;;;;;68.95;32.67;;;;;;;-0.24;76.38;101183.44;5035587;28;20500;-79
2022/03/08 05:39:06;;;;;;;72.28;32.30;;;;;;;-0.13;76.14;101178.75;4889366;28;3631317;-79
2022/03/08 05:41:32;;;;;;;78.97;31.67;;;;;;;-0.02;75.88;101186.06;5016194;28;20034;-77
2022/03/08 05:43:59;;;;;;;65.60;32.20;;;;;;;0.12;75.50;101185.38;5015749;28;20037;-78
2022/03/08 05:46:24;;;;;;;58.42;29.48;;;;;;;0.23;75.40;101193.91;5016750;28;20026;-76
2022/03/08 05:48:51;;;;;;;64.50;29.00;;;;;;;0.30;75.42;101202.34;5022524;28;20213;-78
2022/03/08 05:51:16;;;;;;;58.53;27.50;;;;;;;0.48;75.41;101213.72;5017701;28;20033;-78
2022/03/08 05:53:42;;;;;;;56.45;27.85;;;;;;;0.59;75.10;101204.22;5000927;28;20018;-79
2022/03/08 05:56:08;;;;;;;58.22;28.33;;;;;;;0.66;74.42;101209.03;4985097;28;20129;-76
2022/03/08 05:58:34;;;;;;;65.47;29.25;;;;;;;0.78;74.53;101214.34;4996774;28;20026;-75
2022/03/08 06:01:01;;;;;;;63.97;29.95;;;;;;;0.97;74.30;101219.69;4995877;28;20042;-78
2022/03/08 06:03:26;;;;;;;59.25;26.65;;;;;;;1.11;74.03;101216.94;5001192;28;20022;-77
2022/03/08 06:05:54;;;;;;;53.65;25.80;;;;;;;1.27;73.56;101225.06;4999143;28;20068;-79
2022/03/08 06:08:19;;;;;;;55.53;25.52;;;;;;;1.34;73.16;101222.28;5001965;28;20034;-77
2022/03/08 06:10:45;;;;;;;51.80;24.83;;;;;;;1.50;71.95;101233.16;5018002;28;20112;-78
2022/03/08 06:13:11;;;;;;;52.25;25.50;;;;;;;1.53;72.15;101218.38;5017109;28;20022;-79
2022/03/08 06:15:37;;;;;;;53.13;24.60;;;;;;;1.73;71.24;101233.66;5016744;28;20032;-77
2022/03/08 06:18:03;;;;;;;52.47;24.02;;;;;;;1.81;71.66;101224.06;5016161;28;20056;-82
2022/03/08 06:20:29;;;;;;;45.05;23.33;;;;;;;1.94;71.56;101232.91;4979558;28;20034;-80
2022/03/08 06:22:54;;;;;;;54.67;24.38;;;;;;;2.05;71.51;101223.31;5020997;28;20029;-79
2022/03/08 06:25:21;;;;;;;48.78;24.42;;;;;;;2.15;71.13;101224.53;5019271;28;20026;-81
2022/03/08 06:27:48;;;;;;;46.92;22.58;;;;;;;2.28;70.83;101237.00;5023680;28;20038;-79
2022/03/08 06:30:15;;;;;;;46.83;21.80;;;;;;;2.42;70.86;101230.59;5032781;28;20037;-80
2022/03/08 06:32:41;;;;;;;48.78;24.08;;;;;;;2.56;70.35;101231.41;5018296;28;20041;-80
2022/03/08 06:35:07;;;;;;;50.03;23.77;;;;;;;2.72;69.88;101239.41;5005564;28;20032;-78
2022/03/08 06:37:32;;;;;;;50.60;22.67;;;;;;;2.83;69.65;101228.16;5014217;28;20375;-78
2022/03/08 06:39:58;;;;;;;50.80;23.83;;;;;;;2.96;69.06;101238.59;5015342;28;20180;-76
2022/03/08 06:42:23;;;;;;;49.28;22.88;;;;;;;3.09;68.59;101241.00;5016369;28;20063;-78
2022/03/08 06:44:49;;;;;;;43.03;23.02;;;;;;;3.24;68.71;101237.75;5014513;28;20029;-77
2022/03/08 06:47:14;;;;;;;50.45;25.17;;;;;;;3.36;68.19;101230.88;5013070;28;20517;-78
2022/03/08 06:49:41;;;;;;;55.08;31.73;;;;;;;3.53;67.70;101234.84;5015704;28;20029;-77
2022/03/08 06:52:07;;;;;;;52.60;23.42;;;;;;;3.57;66.92;101239.25;5013364;28;20469;-76
2022/03/08 06:54:33;;;;;;;66.20;42.30;;;;;;;3.69;67.20;101247.25;4995741;28;20092;-77
2022/03/08 06:56:58;;;;;;;65.18;43.03;;;;;;;3.76;66.55;101247.22;5012433;28;20136;-76
2022/03/08 06:59:24;;;;;;;46.83;20.90;;;;;;;3.86;66.35;101249.19;5013756;28;20050;-76
2022/03/08 07:01:49;;;;;;;41.47;19.27;;;;;;;3.96;65.53;101250.34;5012486;28;20441;-76
2022/03/08 07:04:15;;;;;;;47.30;20.83;;;;;;;4.08;65.58;101240.63;5013661;28;20036;-75
2022/03/08 07:06:40;;;;;;;56.95;21.25;;;;;;;4.15;65.41;101235.72;5012116;28;20026;-77
2022/03/08 07:09:05;;;;;;;52.90;20.70;;;;;;;4.26;64.53;101230.00;5015299;28;20036;-76
2022/03/08 07:11:31;;;;;;;40.72;19.30;;;;;;;4.37;64.85;101233.56;5013932;28;20029;-76
2022/03/08 07:13:56;;;;;;;42.80;19.48;;;;;;;4.49;64.48;101232.28;4997366;28;20029;-77
2022/03/08 07:16:23;;;;;;;39.45;18.27;;;;;;;4.66;64.10;101234.16;5012691;28;20042;-77
2022/03/08 07:18:48;;;;;;;47.83;20.30;;;;;;;4.77;63.81;101234.88;5013610;28;20030;-77
2022/03/08 07:21:14;;;;;;;37.70;15.32;;;;;;;4.90;62.98;101238.78;5013542;28;20168;-79
2022/03/08 07:23:39;;;;;;;46.20;18.08;;;;;;;4.94;61.76;101233.09;5010328;28;20037;-81
2022/03/08 07:26:05;;;;;;;35.40;19.00;;;;;;;5.09;61.36;101243.03;4995909;28;20120;-74
2022/03/08 07:28:31;;;;;;;61.15;27.77;;;;;;;5.16;61.48;101240.13;5012646;28;20018;-79
2022/03/08 07:30:58;;;;;;;37.50;18.02;;;;;;;5.26;61.14;101246.88;5014523;28;20052;-77
2022/03/08 07:33:24;;;;;;;59.17;20.48;;;;;;;5.36;60.94;101258.06;4997553;28;20068;-79
2022/03/08 07:35:52;;;;;;;31.33;15.93;;;;;;;5.37;60.77;101259.69;4995645;28;20037;-77
2022/03/08 07:38:18;;;;;;;32.58;15.77;;;;;;;5.39;60.15;101253.59;5015417;28;20049;-82
2022/03/08 07:40:45;;;;;;;31.70;14.93;;;;;;;5.42;60.63;101256.41;5013625;28;20169;-78
2022/03/08 07:43:12;;;;;;;26.02;13.30;;;;;;;5.36;59.59;101238.31;5015403;28;20028;-77
2022/03/08 07:45:37;;;;;;;33.45;13.23;;;;;;;5.44;59.57;101248.28;5022934;28;20025;-77
2022/03/08 07:48:05;;;;;;;32.22;14.20;;;;;;;5.52;59.47;101257.50;5022944;28;20026;-77
2022/03/08 07:50:33;;;;;;;35.72;14.75;;;;;;;5.57;59.71;101259.88;5010825;28;20025;-77
2022/03/08 07:52:59;;;;;;;35.25;14.23;;;;;;;5.63;59.26;101258.97;4997558;28;20041;-81
2022/03/08 07:55:29;;;;;;;25.80;14.10;;;;;;;5.74;58.82;101260.88;5014395;28;20033;-81
2022/03/08 07:58:00;;;;;;;24.17;13.32;;;;;;;5.82;58.36;101257.50;4983122;28;20183;-81
2022/03/08 08:00:27;;;;;;;28.67;13.73;;;;;;;5.93;58.62;101268.72;4999129;28;20024;-82
2022/03/08 08:02:56;;;;;;;23.58;12.15;;;;;;;5.93;57.56;101252.56;4998432;28;20041;-81
2022/03/08 08:05:22;;;;;;;34.08;13.68;;;;;;;6.02;57.97;101266.19;5015750;28;20026;-81
2022/03/08 08:07:49;;;;;;;38.88;21.13;;;;;;;6.01;56.87;101244.81;5015285;28;20033;-79
2022/03/08 08:10:16;;;;;;;31.35;15.57;;;;;;;6.20;56.40;101265.94;5016088;28;20026;-80
2022/03/08 08:12:43;;;;;;;39.15;13.45;;;;;;;6.27;56.90;101263.00;5016116;28;20037;-82
2022/03/08 08:15:11;;;;;;;34.85;14.20;;;;;;;6.35;55.97;101251.19;5022223;28;20033;-82
2022/03/08 08:17:36;;;;;;;31.27;12.10;;;;;;;6.53;55.19;101245.22;5024005;28;20029;-80
2022/03/08 08:20:04;;;;;;;34.40;11.05;;;;;;;6.60;55.04;101250.78;5015908;28;20022;-77
2022/03/08 08:22:32;;;;;;;36.28;12.18;;;;;;;6.63;54.66;101240.63;5015188;28;20034;-78
2022/03/08 08:24:58;;;;;;;27.85;12.23;;;;;;;6.77;53.96;101246.84;5014514;28;20492;-80
2022/03/08 08:27:23;;;;;;;30.23;11.32;;;;;;;6.86;54.12;101255.59;5013918;28;20117;-80
2022/03/08 08:29:50;;;;;;;36.00;12.30;;;;;;;6.93;54.54;101263.97;5012632;28;20116;-81
2022/03/08 08:32:18;;;;;;;27.15;11.18;;;;;;;6.97;53.42;101249.75;4996047;28;20041;-79
2022/03/08 08:34:43;;;;;;;31.98;11.93;;;;;;;7.10;53.13;101247.94;5013016;28;20116;-80
2022/03/08 08:37:11;;;;;;;30.38;9.98;;;;;;;7.28;52.76;101250.41;5013419;28;20113;-79
2022/03/08 08:39:38;;;;;;;25.50;9.48;;;;;;;7.48;51.13;101250.44;4996059;28;20046;-78
2022/03/08 08:42:04;;;;;;;19.25;8.77;;;;;;;7.64;50.77;101261.88;5011667;28;20065;-76
2022/03/08 08:44:32;;;;;;;43.47;10.30;;;;;;;7.77;50.68;101246.59;4996112;28;20495;-78
2022/03/08 08:47:12;;;;;;;16.30;8.05;;;;;;;7.96;49.49;101247.81;4996539;28;20080;-80
2022/03/08 08:49:38;;;;;;;20.95;8.57;;;;;;;7.96;48.63;101247.00;5017123;28;20491;-79
2022/03/08 08:52:05;;;;;;;22.55;8.63;;;;;;;7.97;47.42;101240.91;4982009;28;20057;-78
2022/03/08 08:54:31;;;;;;;33.60;8.70;;;;;;;7.79;48.03;101241.28;4997714;28;20088;-77
2022/03/08 08:56:56;;;;;;;17.25;7.55;;;;;;;7.81;48.16;101240.84;5009780;28;20178;-77
2022/03/08 08:59:22;;;;;;;19.10;6.63;;;;;;;8.13;47.30;101252.31;4995117;28;20053;-78
2022/03/08 09:01:48;;;;;;;23.65;8.45;;;;;;;8.23;47.37;101241.97;5013584;28;20026;-77
2022/03/08 09:04:15;;;;;;;19.80;7.32;;;;;;;8.41;46.49;101242.38;5016146;28;20022;-80
2022/03/08 09:06:42;;;;;;;22.05;8.23;;;;;;;8.53;45.86;101223.84;5032966;28;20026;-80
2022/03/08 09:09:07;;;;;;;18.63;8.38;;;;;;;8.99;45.61;101234.03;5033049;28;20090;-80
2022/03/08 09:11:33;;;;;;;11.68;7.40;;;;;;;9.39;44.18;101240.28;5012094;28;20068;-80
2022/03/08 09:13:59;;;;;;;12.98;6.88;;;;;;;9.73;45.01;101234.84;4996956;28;20030;-78
2022/03/08 09:16:26;;;;;;;18.45;7.65;;;;;;;9.96;43.44;101220.31;5014512;28;20029;-79
2022/03/08 09:18:52;;;;;;;19.42;7.00;;;;;;;10.20;42.81;101242.84;5013948;28;20028;-78
2022/03/08 09:21:18;;;;;;;13.65;8.13;;;;;;;10.33;41.88;101237.94;4996402;28;20033;-80
2022/03/08 09:23:44;;;;;;;18.77;9.43;;;;;;;10.22;41.66;101220.38;5012919;28;20026;-81
2022/03/08 09:26:10;;;;;;;20.55;9.85;;;;;;;10.16;42.30;101242.91;5013807;28;20038;-82
2022/03/08 09:28:35;;;;;;;27.83;9.95;;;;;;;10.14;41.28;101242.56;5015419;28;20040;-77
2022/03/08 09:31:01;;;;;;;19.25;10.40;;;;;;;10.11;42.36;101248.38;5000227;28;20028;-79
2022/03/08 09:33:28;;;;;;;17.85;11.43;;;;;;;10.23;42.05;101247.59;5007797;28;20423;-78
2022/03/08 09:36:01;;;;;;;17.02;11.10;;;;;;;10.35;41.98;101241.16;5014398;28;20042;-85
2022/03/08 09:38:26;;;;;;;25.30;12.30;;;;;;;10.56;41.97;101239.66;5011817;28;20014;-81
2022/03/08 09:40:52;;;;;;;24.40;12.02;;;;;;;10.85;40.94;101239.53;5032615;28;20041;-77
2022/03/08 09:43:18;;;;;;;20.63;12.20;;;;;;;10.70;40.76;101233.50;4998548;28;20475;-76
2022/03/08 09:45:43;;;;;;;26.85;13.52;;;;;;;10.44;40.44;101243.31;4997860;28;20029;-76
2022/03/08 09:48:09;;;;;;;33.95;15.65;;;;;;;10.03;41.74;101252.66;5015235;28;20458;-76
2022/03/08 09:50:36;;;;;;;20.08;13.25;;;;;;;9.64;42.68;101243.22;5015455;28;20040;-75
2022/03/08 09:53:03;;;;;;;21.58;12.15;;;;;;;9.42;42.85;101220.28;5000882;28;20026;-75
2022/03/08 09:55:28;;;;;;;22.35;12.77;;;;;;;9.56;42.67;101227.63;5032711;28;20067;-75
2022/03/08 09:57:54;;;;;;;21.95;13.32;;;;;;;9.84;43.51;101223.16;5018100;28;20426;-77
2022/03/08 10:00:23;;;;;;;22.50;12.07;;;;;;;10.24;41.12;101232.94;4999648;28;20061;-76
2022/03/08 10:02:55;;;;;;;17.50;11.77;;;;;;;10.31;42.25;101223.38;5030575;28;20548;-76
2022/03/08 10:05:26;;;;;;;23.15;11.80;;;;;;;10.51;41.24;101223.16;4982051;28;20029;-76
2022/03/08 10:08:10;;;;;;;22.95;11.10;;;;;;;10.57;41.55;101227.81;5015450;28;20025;-74
2022/03/08 10:10:49;;;;;;;20.98;12.05;;;;;;;10.58;40.15;101220.84;5034543;28;20030;-76
2022/03/08 10:13:15;;;;;;;19.65;11.57;;;;;;;10.62;40.65;101229.28;5037423;28;20208;-76
2022/03/08 10:15:41;;;;;;;18.73;12.48;;;;;;;10.96;40.75;101220.00;5020419;28;20039;-75
2022/03/08 10:18:07;;;;;;;19.75;9.45;;;;;;;11.10;39.13;101223.16;5018444;28;20100;-75
2022/03/08 10:20:33;;;;;;;23.70;11.05;;;;;;;11.01;39.69;101227.97;5001934;28;20083;-75
2022/03/08 10:23:00;;;;;;;16.73;10.50;;;;;;;11.13;39.49;101227.94;5019011;28;20029;-80
2022/03/08 10:25:29;;;;;;;23.50;11.23;;;;;;;11.34;38.88;101223.56;5021391;28;20040;-80
2022/03/08 10:27:54;;;;;;;25.00;11.05;;;;;;;11.63;37.51;101221.25;5004906;28;20021;-79
2022/03/08 10:30:25;;;;;;;16.45;9.48;;;;;;;11.60;37.23;101218.50;5035784;28;20026;-78
2022/03/08 10:32:56;;;;;;;21.17;10.82;;;;;;;11.35;37.53;101227.19;5018441;28;20048;-77
2022/03/08 10:35:29;;;;;;;25.00;9.85;;;;;;;10.95;37.73;101222.06;5017683;28;20063;-77
2022/03/08 10:38:03;;;;;;;15.50;9.40;;;;;;;10.81;38.66;101225.38;5036072;28;20452;-77
2022/03/08 10:40:32;;;;;;;15.38;9.43;;;;;;;10.82;38.73;101221.28;5037694;28;20136;-78
2022/03/08 10:43:06;;;;;;;24.92;11.45;;;;;;;10.80;39.10;101221.72;5018013;28;20041;-80
2022/03/08 10:45:34;;;;;;;14.20;8.90;;;;;;;10.84;37.78;101204.53;5017822;28;20116;-78
2022/03/08 10:48:04;;;;;;;37.67;11.55;;;;;;;10.85;38.14;101211.84;5001346;28;20021;-77
2022/03/08 10:50:31;;;;;;;22.88;10.57;;;;;;;10.79;38.44;101210.81;5001300;28;20021;-79
2022/03/08 10:52:58;;;;;;;19.80;10.52;;;;;;;10.85;39.81;101206.13;5001791;28;20067;-82
2022/03/08 10:55:30;;;;;;;22.65;11.38;;;;;;;10.90;38.74;101199.84;5001446;28;20033;-80
2022/03/08 10:58:05;;;;;;;16.25;10.15;;;;;;;10.92;39.21;101203.03;5001524;28;20498;-80
2022/03/08 11:00:32;;;;;;;33.05;12.02;;;;;;;10.68;38.95;101207.50;5017669;28;20021;-76
2022/03/08 11:03:02;;;;;;;33.13;12.52;;;;;;;10.23;38.80;101200.00;5017886;28;20021;-77
2022/03/08 11:05:32;;;;;;;24.67;10.18;;;;;;;9.63;39.54;101193.28;5035200;28;20439;-79
2022/03/08 11:07:58;;;;;;;17.10;10.48;;;;;;;9.43;41.01;101189.78;5017829;28;20144;-78
2022/03/08 11:10:25;;;;;;;18.27;10.07;;;;;;;9.60;41.39;101196.22;5035715;28;20045;-79